sensor_id;sensor_type;location;lat;lon;timestamp;P1;durP1;ratioP1;P2;durP2;ratioP2
47764;SDS011;33529;49.242;8.670;2023-03-23T00:01:14;3.90;;;0.93;;
47764;SDS011;33529;49.242;8.670;2023-03-23T00:03:45;1.58;;;0.75;;
47764;SDS011;33529;49.242;8.670;2023-03-23T00:06:13;1.70;;;0.77;;
47764;SDS011;33529;49.242;8.670;2023-03-23T00:08:46;1.52;;;0.65;;
47764;SDS011;33529;49.242;8.670;2023-03-23T00:11:17;1.73;;;1.13;;
47764;SDS011;33529;49.242;8.670;2023-03-23T00:13:46;1.17;;;0.60;;
47764;SDS011;33529;49.242;8.670;2023-03-23T00:16:16;1.95;;;0.70;;
47764;SDS011;33529;49.242;8.670;2023-03-23T00:21:12;2.22;;;0.60;;
47764;SDS011;33529;49.242;8.670;2023-03-23T00:23:38;0.85;;;0.60;;
47764;SDS011;33529;49.242;8.670;2023-03-23T00:26:06;1.75;;;0.70;;
47764;SDS011;33529;49.242;8.670;2023-03-23T00:28:32;1.40;;;0.50;;
47764;SDS011;33529;49.242;8.670;2023-03-23T00:30:58;0.98;;;0.50;;
47764;SDS011;33529;49.242;8.670;2023-03-23T00:33:27;1.30;;;0.63;;
47764;SDS011;33529;49.242;8.670;2023-03-23T00:35:55;0.95;;;0.50;;
47764;SDS011;33529;49.242;8.670;2023-03-23T00:38:22;1.90;;;0.90;;
47764;SDS011;33529;49.242;8.670;2023-03-23T00:40:49;1.63;;;0.65;;
47764;SDS011;33529;49.242;8.670;2023-03-23T00:43:16;1.38;;;0.50;;
47764;SDS011;33529;49.242;8.670;2023-03-23T00:45:43;0.90;;;0.47;;
47764;SDS011;33529;49.242;8.670;2023-03-23T00:48:23;1.33;;;0.68;;
47764;SDS011;33529;49.242;8.670;2023-03-23T00:50:51;3.00;;;0.90;;
47764;SDS011;33529;49.242;8.670;2023-03-23T00:53:17;1.15;;;0.50;;
47764;SDS011;33529;49.242;8.670;2023-03-23T00:55:45;1.25;;;0.60;;
47764;SDS011;33529;49.242;8.670;2023-03-23T00:58:14;1.73;;;0.68;;
47764;SDS011;33529;49.242;8.670;2023-03-23T01:00:41;0.73;;;0.47;;
47764;SDS011;33529;49.242;8.670;2023-03-23T01:03:07;1.02;;;0.57;;
47764;SDS011;33529;49.242;8.670;2023-03-23T01:05:37;1.92;;;1.00;;
47764;SDS011;33529;49.242;8.670;2023-03-23T01:08:05;0.98;;;0.60;;
47764;SDS011;33529;49.242;8.670;2023-03-23T01:10:31;1.27;;;0.68;;
47764;SDS011;33529;49.242;8.670;2023-03-23T01:13:00;1.00;;;0.60;;
47764;SDS011;33529;49.242;8.670;2023-03-23T01:15:26;1.17;;;0.50;;
47764;SDS011;33529;49.242;8.670;2023-03-23T01:17:53;1.83;;;0.75;;
47764;SDS011;33529;49.242;8.670;2023-03-23T01:20:19;1.35;;;0.60;;
47764;SDS011;33529;49.242;8.670;2023-03-23T01:22:45;1.33;;;0.90;;
47764;SDS011;33529;49.242;8.670;2023-03-23T01:25:11;1.15;;;0.65;;
47764;SDS011;33529;49.242;8.670;2023-03-23T01:27:38;1.58;;;0.77;;
47764;SDS011;33529;49.242;8.670;2023-03-23T01:30:05;1.85;;;0.60;;
47764;SDS011;33529;49.242;8.670;2023-03-23T01:32:32;1.90;;;0.45;;
47764;SDS011;33529;49.242;8.670;2023-03-23T01:34:58;1.35;;;0.75;;
47764;SDS011;33529;49.242;8.670;2023-03-23T01:37:24;0.98;;;0.50;;
47764;SDS011;33529;49.242;8.670;2023-03-23T01:39:53;0.90;;;0.40;;
47764;SDS011;33529;49.242;8.670;2023-03-23T01:42:23;1.38;;;0.60;;
47764;SDS011;33529;49.242;8.670;2023-03-23T01:47:59;0.68;;;0.47;;
47764;SDS011;33529;49.242;8.670;2023-03-23T01:50:34;1.13;;;0.50;;
47764;SDS011;33529;49.242;8.670;2023-03-23T01:53:06;0.63;;;0.30;;
47764;SDS011;33529;49.242;8.670;2023-03-23T01:55:36;1.58;;;0.70;;
47764;SDS011;33529;49.242;8.670;2023-03-23T01:58:06;0.40;;;0.30;;
47764;SDS011;33529;49.242;8.670;2023-03-23T02:00:34;0.80;;;0.40;;
47764;SDS011;33529;49.242;8.670;2023-03-23T02:03:00;0.85;;;0.50;;
47764;SDS011;33529;49.242;8.670;2023-03-23T02:05:32;0.88;;;0.50;;
47764;SDS011;33529;49.242;8.670;2023-03-23T02:08:09;0.73;;;0.50;;
47764;SDS011;33529;49.242;8.670;2023-03-23T02:10:37;0.98;;;0.55;;
47764;SDS011;33529;49.242;8.670;2023-03-23T02:13:04;0.75;;;0.40;;
47764;SDS011;33529;49.242;8.670;2023-03-23T02:15:35;2.25;;;0.98;;
47764;SDS011;33529;49.242;8.670;2023-03-23T02:18:20;0.88;;;0.50;;
47764;SDS011;33529;49.242;8.670;2023-03-23T02:23:58;0.93;;;0.50;;
47764;SDS011;33529;49.242;8.670;2023-03-23T02:26:55;1.05;;;0.50;;
47764;SDS011;33529;49.242;8.670;2023-03-23T02:35:15;1.30;;;0.60;;
47764;SDS011;33529;49.242;8.670;2023-03-23T02:37:51;1.60;;;0.60;;
47764;SDS011;33529;49.242;8.670;2023-03-23T02:40:33;1.33;;;0.60;;
47764;SDS011;33529;49.242;8.670;2023-03-23T02:43:04;0.85;;;0.60;;
47764;SDS011;33529;49.242;8.670;2023-03-23T02:45:33;1.15;;;0.50;;
47764;SDS011;33529;49.242;8.670;2023-03-23T02:48:01;0.82;;;0.32;;
47764;SDS011;33529;49.242;8.670;2023-03-23T02:50:29;1.40;;;0.70;;
47764;SDS011;33529;49.242;8.670;2023-03-23T02:52:57;1.20;;;0.65;;
47764;SDS011;33529;49.242;8.670;2023-03-23T02:55:26;1.20;;;0.52;;
47764;SDS011;33529;49.242;8.670;2023-03-23T02:57:56;0.80;;;0.50;;
47764;SDS011;33529;49.242;8.670;2023-03-23T03:00:22;1.15;;;0.70;;
47764;SDS011;33529;49.242;8.670;2023-03-23T03:02:51;1.08;;;0.60;;
47764;SDS011;33529;49.242;8.670;2023-03-23T03:05:22;0.75;;;0.50;;
47764;SDS011;33529;49.242;8.670;2023-03-23T03:10:29;1.23;;;0.73;;
47764;SDS011;33529;49.242;8.670;2023-03-23T03:21:02;1.20;;;0.50;;
47764;SDS011;33529;49.242;8.670;2023-03-23T03:23:33;2.10;;;0.73;;
47764;SDS011;33529;49.242;8.670;2023-03-23T03:26:02;0.95;;;0.55;;
47764;SDS011;33529;49.242;8.670;2023-03-23T03:28:41;1.88;;;0.63;;
47764;SDS011;33529;49.242;8.670;2023-03-23T03:31:08;1.35;;;0.68;;
47764;SDS011;33529;49.242;8.670;2023-03-23T03:33:35;2.42;;;0.73;;
47764;SDS011;33529;49.242;8.670;2023-03-23T03:36:02;2.28;;;0.70;;
47764;SDS011;33529;49.242;8.670;2023-03-23T03:38:40;1.15;;;0.65;;
47764;SDS011;33529;49.242;8.670;2023-03-23T03:41:07;1.92;;;0.80;;
47764;SDS011;33529;49.242;8.670;2023-03-23T03:43:34;1.85;;;0.80;;
47764;SDS011;33529;49.242;8.670;2023-03-23T03:46:01;0.93;;;0.50;;
47764;SDS011;33529;49.242;8.670;2023-03-23T03:48:27;1.63;;;0.70;;
47764;SDS011;33529;49.242;8.670;2023-03-23T03:50:53;1.38;;;0.80;;
47764;SDS011;33529;49.242;8.670;2023-03-23T03:53:22;1.50;;;0.80;;
47764;SDS011;33529;49.242;8.670;2023-03-23T03:55:49;1.27;;;0.85;;
47764;SDS011;33529;49.242;8.670;2023-03-23T03:58:16;1.27;;;0.85;;
47764;SDS011;33529;49.242;8.670;2023-03-23T04:01:03;1.63;;;0.75;;
47764;SDS011;33529;49.242;8.670;2023-03-23T04:03:33;1.70;;;0.90;;
47764;SDS011;33529;49.242;8.670;2023-03-23T04:06:05;1.73;;;0.70;;
47764;SDS011;33529;49.242;8.670;2023-03-23T04:08:32;1.35;;;0.70;;
47764;SDS011;33529;49.242;8.670;2023-03-23T04:10:59;1.55;;;0.82;;
47764;SDS011;33529;49.242;8.670;2023-03-23T04:13:27;1.10;;;0.70;;
47764;SDS011;33529;49.242;8.670;2023-03-23T04:16:08;1.58;;;0.80;;
47764;SDS011;33529;49.242;8.670;2023-03-23T04:18:34;1.52;;;0.70;;
47764;SDS011;33529;49.242;8.670;2023-03-23T04:21:01;0.80;;;0.50;;
47764;SDS011;33529;49.242;8.670;2023-03-23T04:23:29;1.67;;;0.80;;
47764;SDS011;33529;49.242;8.670;2023-03-23T04:26:01;1.35;;;0.60;;
47764;SDS011;33529;49.242;8.670;2023-03-23T04:28:35;1.65;;;0.80;;
47764;SDS011;33529;49.242;8.670;2023-03-23T04:31:33;1.05;;;0.73;;
47764;SDS011;33529;49.242;8.670;2023-03-23T04:34:14;2.13;;;0.90;;
47764;SDS011;33529;49.242;8.670;2023-03-23T04:36:45;1.63;;;0.73;;
47764;SDS011;33529;49.242;8.670;2023-03-23T04:39:19;1.17;;;0.75;;
47764;SDS011;33529;49.242;8.670;2023-03-23T04:41:45;1.40;;;0.60;;
47764;SDS011;33529;49.242;8.670;2023-03-23T04:44:17;1.30;;;0.60;;
47764;SDS011;33529;49.242;8.670;2023-03-23T04:46:55;1.52;;;0.80;;
47764;SDS011;33529;49.242;8.670;2023-03-23T04:49:22;2.00;;;0.80;;
47764;SDS011;33529;49.242;8.670;2023-03-23T04:51:52;1.75;;;1.02;;
47764;SDS011;33529;49.242;8.670;2023-03-23T04:54:35;1.85;;;0.90;;
47764;SDS011;33529;49.242;8.670;2023-03-23T04:57:02;2.00;;;0.75;;
47764;SDS011;33529;49.242;8.670;2023-03-23T04:59:29;1.63;;;1.10;;
47764;SDS011;33529;49.242;8.670;2023-03-23T05:02:14;1.77;;;0.75;;
47764;SDS011;33529;49.242;8.670;2023-03-23T05:04:44;1.63;;;0.77;;
47764;SDS011;33529;49.242;8.670;2023-03-23T05:07:14;2.70;;;1.40;;
47764;SDS011;33529;49.242;8.670;2023-03-23T05:09:46;2.35;;;0.82;;
47764;SDS011;33529;49.242;8.670;2023-03-23T05:12:13;1.45;;;0.70;;
47764;SDS011;33529;49.242;8.670;2023-03-23T05:15:03;3.03;;;0.80;;
47764;SDS011;33529;49.242;8.670;2023-03-23T05:17:30;1.95;;;1.13;;
47764;SDS011;33529;49.242;8.670;2023-03-23T05:19:59;1.63;;;0.68;;
47764;SDS011;33529;49.242;8.670;2023-03-23T05:22:35;1.90;;;0.88;;
47764;SDS011;33529;49.242;8.670;2023-03-23T05:25:03;2.20;;;1.02;;
47764;SDS011;33529;49.242;8.670;2023-03-23T05:27:34;1.90;;;0.80;;
47764;SDS011;33529;49.242;8.670;2023-03-23T05:30:10;2.28;;;0.88;;
47764;SDS011;33529;49.242;8.670;2023-03-23T05:32:38;2.72;;;1.10;;
47764;SDS011;33529;49.242;8.670;2023-03-23T05:35:22;2.25;;;1.10;;
47764;SDS011;33529;49.242;8.670;2023-03-23T05:37:50;2.00;;;0.98;;
47764;SDS011;33529;49.242;8.670;2023-03-23T05:40:19;2.00;;;0.85;;
47764;SDS011;33529;49.242;8.670;2023-03-23T05:42:53;1.58;;;0.80;;
47764;SDS011;33529;49.242;8.670;2023-03-23T05:45:29;1.02;;;0.68;;
47764;SDS011;33529;49.242;8.670;2023-03-23T05:47:55;2.47;;;1.10;;
47764;SDS011;33529;49.242;8.670;2023-03-23T05:50:24;2.30;;;1.13;;
47764;SDS011;33529;49.242;8.670;2023-03-23T05:52:51;1.08;;;0.60;;
47764;SDS011;33529;49.242;8.670;2023-03-23T05:55:19;2.33;;;1.08;;
47764;SDS011;33529;49.242;8.670;2023-03-23T05:57:52;2.33;;;1.20;;
47764;SDS011;33529;49.242;8.670;2023-03-23T06:00:27;1.55;;;0.98;;
47764;SDS011;33529;49.242;8.670;2023-03-23T06:03:04;2.45;;;1.50;;
47764;SDS011;33529;49.242;8.670;2023-03-23T06:05:45;1.30;;;0.85;;
47764;SDS011;33529;49.242;8.670;2023-03-23T06:08:14;1.58;;;0.90;;
47764;SDS011;33529;49.242;8.670;2023-03-23T06:10:40;1.58;;;0.85;;
47764;SDS011;33529;49.242;8.670;2023-03-23T06:13:06;2.17;;;1.05;;
47764;SDS011;33529;49.242;8.670;2023-03-23T06:15:42;2.97;;;1.33;;
47764;SDS011;33529;49.242;8.670;2023-03-23T06:18:39;1.05;;;0.73;;
47764;SDS011;33529;49.242;8.670;2023-03-23T06:21:15;1.90;;;0.90;;
47764;SDS011;33529;49.242;8.670;2023-03-23T06:24:00;1.05;;;0.95;;
47764;SDS011;33529;49.242;8.670;2023-03-23T06:26:32;2.08;;;0.90;;
47764;SDS011;33529;49.242;8.670;2023-03-23T06:29:04;1.08;;;0.70;;
47764;SDS011;33529;49.242;8.670;2023-03-23T06:31:43;2.72;;;0.82;;
47764;SDS011;33529;49.242;8.670;2023-03-23T06:34:12;2.08;;;1.13;;
47764;SDS011;33529;49.242;8.670;2023-03-23T06:36:57;1.90;;;0.90;;
47764;SDS011;33529;49.242;8.670;2023-03-23T06:39:31;1.35;;;0.77;;
47764;SDS011;33529;49.242;8.670;2023-03-23T06:42:15;1.38;;;0.70;;
47764;SDS011;33529;49.242;8.670;2023-03-23T06:44:46;2.25;;;1.00;;
47764;SDS011;33529;49.242;8.670;2023-03-23T06:47:13;2.25;;;0.95;;
47764;SDS011;33529;49.242;8.670;2023-03-23T06:49:44;2.38;;;1.00;;
47764;SDS011;33529;49.242;8.670;2023-03-23T06:52:20;1.38;;;0.90;;
47764;SDS011;33529;49.242;8.670;2023-03-23T06:54:51;1.63;;;0.88;;
47764;SDS011;33529;49.242;8.670;2023-03-23T06:57:18;1.45;;;0.70;;
47764;SDS011;33529;49.242;8.670;2023-03-23T06:59:46;2.95;;;1.13;;
47764;SDS011;33529;49.242;8.670;2023-03-23T07:02:12;1.98;;;0.88;;
47764;SDS011;33529;49.242;8.670;2023-03-23T07:04:40;1.15;;;0.60;;
47764;SDS011;33529;49.242;8.670;2023-03-23T07:07:11;1.88;;;0.93;;
47764;SDS011;33529;49.242;8.670;2023-03-23T07:09:48;1.70;;;0.90;;
47764;SDS011;33529;49.242;8.670;2023-03-23T07:12:17;2.22;;;0.90;;
47764;SDS011;33529;49.242;8.670;2023-03-23T07:14:46;1.75;;;0.93;;
47764;SDS011;33529;49.242;8.670;2023-03-23T07:17:12;2.47;;;0.88;;
47764;SDS011;33529;49.242;8.670;2023-03-23T07:19:46;1.60;;;0.85;;
47764;SDS011;33529;49.242;8.670;2023-03-23T07:22:14;1.95;;;0.80;;
47764;SDS011;33529;49.242;8.670;2023-03-23T07:24:43;2.28;;;0.90;;
47764;SDS011;33529;49.242;8.670;2023-03-23T07:27:17;0.88;;;0.75;;
47764;SDS011;33529;49.242;8.670;2023-03-23T07:29:42;1.55;;;0.88;;
47764;SDS011;33529;49.242;8.670;2023-03-23T07:32:16;1.10;;;0.77;;
47764;SDS011;33529;49.242;8.670;2023-03-23T07:34:42;1.10;;;0.60;;
47764;SDS011;33529;49.242;8.670;2023-03-23T07:37:19;1.88;;;0.90;;
47764;SDS011;33529;49.242;8.670;2023-03-23T07:39:47;3.85;;;0.85;;
47764;SDS011;33529;49.242;8.670;2023-03-23T07:42:14;1.90;;;0.65;;
47764;SDS011;33529;49.242;8.670;2023-03-23T07:44:45;0.73;;;0.60;;
47764;SDS011;33529;49.242;8.670;2023-03-23T07:47:12;1.00;;;0.60;;
47764;SDS011;33529;49.242;8.670;2023-03-23T07:49:39;1.15;;;0.50;;
47764;SDS011;33529;49.242;8.670;2023-03-23T07:52:14;1.33;;;0.60;;
47764;SDS011;33529;49.242;8.670;2023-03-23T07:54:40;0.73;;;0.38;;
47764;SDS011;33529;49.242;8.670;2023-03-23T07:57:15;1.67;;;0.50;;
47764;SDS011;33529;49.242;8.670;2023-03-23T07:59:46;1.05;;;0.50;;
47764;SDS011;33529;49.242;8.670;2023-03-23T08:02:12;1.42;;;0.60;;
47764;SDS011;33529;49.242;8.670;2023-03-23T08:04:49;0.90;;;0.40;;
47764;SDS011;33529;49.242;8.670;2023-03-23T08:07:16;0.65;;;0.40;;
47764;SDS011;33529;49.242;8.670;2023-03-23T08:09:56;1.05;;;0.52;;
47764;SDS011;33529;49.242;8.670;2023-03-23T08:12:41;1.27;;;0.50;;
47764;SDS011;33529;49.242;8.670;2023-03-23T08:15:20;2.83;;;1.35;;
47764;SDS011;33529;49.242;8.670;2023-03-23T08:18:03;1.52;;;0.47;;
47764;SDS011;33529;49.242;8.670;2023-03-23T08:20:42;1.27;;;0.55;;
47764;SDS011;33529;49.242;8.670;2023-03-23T08:23:17;1.25;;;0.43;;
47764;SDS011;33529;49.242;8.670;2023-03-23T08:26:11;1.77;;;0.70;;
47764;SDS011;33529;49.242;8.670;2023-03-23T08:28:49;0.38;;;0.30;;
47764;SDS011;33529;49.242;8.670;2023-03-23T08:31:34;1.15;;;0.63;;
47764;SDS011;33529;49.242;8.670;2023-03-23T08:34:12;0.88;;;0.52;;
47764;SDS011;33529;49.242;8.670;2023-03-23T08:37:02;1.50;;;0.80;;
47764;SDS011;33529;49.242;8.670;2023-03-23T08:39:50;0.95;;;0.70;;
47764;SDS011;33529;49.242;8.670;2023-03-23T08:42:26;0.65;;;0.50;;
47764;SDS011;33529;49.242;8.670;2023-03-23T08:45:05;1.60;;;0.47;;
47764;SDS011;33529;49.242;8.670;2023-03-23T08:47:50;1.85;;;0.75;;
47764;SDS011;33529;49.242;8.670;2023-03-23T08:50:26;0.90;;;0.50;;
47764;SDS011;33529;49.242;8.670;2023-03-23T08:53:28;1.10;;;0.70;;
47764;SDS011;33529;49.242;8.670;2023-03-23T08:56:25;0.85;;;0.47;;
47764;SDS011;33529;49.242;8.670;2023-03-23T08:59:06;1.05;;;0.60;;
47764;SDS011;33529;49.242;8.670;2023-03-23T09:01:55;2.42;;;0.65;;
47764;SDS011;33529;49.242;8.670;2023-03-23T09:04:42;1.70;;;0.70;;
47764;SDS011;33529;49.242;8.670;2023-03-23T09:07:22;0.65;;;0.50;;
47764;SDS011;33529;49.242;8.670;2023-03-23T09:09:48;1.17;;;0.55;;
47764;SDS011;33529;49.242;8.670;2023-03-23T09:12:14;1.10;;;0.57;;
47764;SDS011;33529;49.242;8.670;2023-03-23T09:14:40;1.35;;;0.75;;
47764;SDS011;33529;49.242;8.670;2023-03-23T09:17:06;2.22;;;0.77;;
47764;SDS011;33529;49.242;8.670;2023-03-23T09:19:33;2.00;;;0.73;;
47764;SDS011;33529;49.242;8.670;2023-03-23T09:21:59;1.75;;;0.90;;
47764;SDS011;33529;49.242;8.670;2023-03-23T09:24:26;1.77;;;0.90;;
47764;SDS011;33529;49.242;8.670;2023-03-23T09:26:52;2.13;;;1.02;;
47764;SDS011;33529;49.242;8.670;2023-03-23T09:29:18;1.00;;;0.60;;
47764;SDS011;33529;49.242;8.670;2023-03-23T09:31:44;1.00;;;0.57;;
47764;SDS011;33529;49.242;8.670;2023-03-23T09:34:12;2.42;;;1.30;;
47764;SDS011;33529;49.242;8.670;2023-03-23T09:36:40;2.28;;;1.00;;
47764;SDS011;33529;49.242;8.670;2023-03-23T09:39:07;1.05;;;0.57;;
47764;SDS011;33529;49.242;8.670;2023-03-23T09:41:40;1.58;;;0.60;;
47764;SDS011;33529;49.242;8.670;2023-03-23T09:47:14;0.73;;;0.43;;
47764;SDS011;33529;49.242;8.670;2023-03-23T09:50:14;1.80;;;0.65;;
47764;SDS011;33529;49.242;8.670;2023-03-23T09:52:45;0.95;;;0.60;;
47764;SDS011;33529;49.242;8.670;2023-03-23T09:55:26;1.65;;;0.85;;
47764;SDS011;33529;49.242;8.670;2023-03-23T09:58:18;1.13;;;0.60;;
47764;SDS011;33529;49.242;8.670;2023-03-23T10:01:07;1.02;;;0.68;;
47764;SDS011;33529;49.242;8.670;2023-03-23T10:03:46;1.98;;;0.80;;
47764;SDS011;33529;49.242;8.670;2023-03-23T10:06:14;1.52;;;0.57;;
47764;SDS011;33529;49.242;8.670;2023-03-23T10:08:49;1.83;;;0.77;;
47764;SDS011;33529;49.242;8.670;2023-03-23T10:13:57;1.65;;;0.60;;
47764;SDS011;33529;49.242;8.670;2023-03-23T10:16:33;1.13;;;0.50;;
47764;SDS011;33529;49.242;8.670;2023-03-23T10:19:08;1.27;;;0.60;;
47764;SDS011;33529;49.242;8.670;2023-03-23T10:21:57;0.80;;;0.50;;
47764;SDS011;33529;49.242;8.670;2023-03-23T10:24:31;1.67;;;0.70;;
47764;SDS011;33529;49.242;8.670;2023-03-23T10:35:27;0.57;;;0.40;;
47764;SDS011;33529;49.242;8.670;2023-03-23T10:37:59;1.25;;;0.50;;
47764;SDS011;33529;49.242;8.670;2023-03-23T10:40:30;0.47;;;0.40;;
47764;SDS011;33529;49.242;8.670;2023-03-23T10:42:58;0.80;;;0.35;;
47764;SDS011;33529;49.242;8.670;2023-03-23T10:45:25;0.88;;;0.55;;
47764;SDS011;33529;49.242;8.670;2023-03-23T10:50:43;1.20;;;0.47;;
47764;SDS011;33529;49.242;8.670;2023-03-23T10:53:21;1.08;;;0.60;;
47764;SDS011;33529;49.242;8.670;2023-03-23T10:55:50;1.45;;;0.63;;
47764;SDS011;33529;49.242;8.670;2023-03-23T11:00:49;1.25;;;0.50;;
47764;SDS011;33529;49.242;8.670;2023-03-23T11:05:47;0.77;;;0.63;;
47764;SDS011;33529;49.242;8.670;2023-03-23T11:08:25;1.13;;;0.60;;
47764;SDS011;33529;49.242;8.670;2023-03-23T11:11:09;1.10;;;0.60;;
47764;SDS011;33529;49.242;8.670;2023-03-23T11:13:39;2.25;;;0.93;;
47764;SDS011;33529;49.242;8.670;2023-03-23T11:16:21;1.52;;;0.80;;
47764;SDS011;33529;49.242;8.670;2023-03-23T11:18:59;1.77;;;0.93;;
47764;SDS011;33529;49.242;8.670;2023-03-23T11:21:37;1.48;;;0.80;;
47764;SDS011;33529;49.242;8.670;2023-03-23T11:24:04;1.67;;;0.80;;
47764;SDS011;33529;49.242;8.670;2023-03-23T11:26:34;2.70;;;1.00;;
47764;SDS011;33529;49.242;8.670;2023-03-23T11:29:09;2.03;;;0.73;;
47764;SDS011;33529;49.242;8.670;2023-03-23T11:37:00;2.03;;;0.80;;
47764;SDS011;33529;49.242;8.670;2023-03-23T11:42:34;0.95;;;0.50;;
47764;SDS011;33529;49.242;8.670;2023-03-23T11:45:13;1.85;;;0.70;;
47764;SDS011;33529;49.242;8.670;2023-03-23T11:50:43;0.98;;;0.50;;
47764;SDS011;33529;49.242;8.670;2023-03-23T11:58:11;0.85;;;0.63;;
47764;SDS011;33529;49.242;8.670;2023-03-23T12:00:46;0.90;;;0.63;;
47764;SDS011;33529;49.242;8.670;2023-03-23T12:03:18;1.77;;;0.88;;
47764;SDS011;33529;49.242;8.670;2023-03-23T12:06:04;1.17;;;0.70;;
47764;SDS011;33529;49.242;8.670;2023-03-23T12:23:03;0.88;;;0.55;;
47764;SDS011;33529;49.242;8.670;2023-03-23T12:41:57;0.80;;;0.40;;
47764;SDS011;33529;49.242;8.670;2023-03-23T12:44:49;1.10;;;0.70;;
47764;SDS011;33529;49.242;8.670;2023-03-23T12:50:09;0.77;;;0.50;;
47764;SDS011;33529;49.242;8.670;2023-03-23T12:52:38;0.82;;;0.50;;
47764;SDS011;33529;49.242;8.670;2023-03-23T12:58:34;2.20;;;0.73;;
47764;SDS011;33529;49.242;8.670;2023-03-23T13:01:10;1.17;;;0.52;;
47764;SDS011;33529;49.242;8.670;2023-03-23T13:03:42;0.80;;;0.43;;
47764;SDS011;33529;49.242;8.670;2023-03-23T13:06:17;2.25;;;0.80;;
47764;SDS011;33529;49.242;8.670;2023-03-23T13:08:53;2.35;;;0.70;;
47764;SDS011;33529;49.242;8.670;2023-03-23T13:11:33;1.05;;;0.60;;
47764;SDS011;33529;49.242;8.670;2023-03-23T13:16:44;1.23;;;0.57;;
47764;SDS011;33529;49.242;8.670;2023-03-23T13:19:30;1.23;;;0.52;;
47764;SDS011;33529;49.242;8.670;2023-03-23T13:22:07;1.15;;;0.47;;
47764;SDS011;33529;49.242;8.670;2023-03-23T13:24:46;1.58;;;0.60;;
47764;SDS011;33529;49.242;8.670;2023-03-23T13:27:24;1.17;;;0.50;;
47764;SDS011;33529;49.242;8.670;2023-03-23T13:29:56;1.45;;;0.60;;
47764;SDS011;33529;49.242;8.670;2023-03-23T13:32:31;0.85;;;0.43;;
47764;SDS011;33529;49.242;8.670;2023-03-23T13:35:03;1.42;;;0.60;;
47764;SDS011;33529;49.242;8.670;2023-03-23T13:37:40;0.93;;;0.50;;
47764;SDS011;33529;49.242;8.670;2023-03-23T13:42:46;1.83;;;0.75;;
47764;SDS011;33529;49.242;8.670;2023-03-23T13:50:58;0.38;;;0.30;;
47764;SDS011;33529;49.242;8.670;2023-03-23T13:53:30;0.85;;;0.45;;
47764;SDS011;33529;49.242;8.670;2023-03-23T13:56:17;2.00;;;0.57;;
47764;SDS011;33529;49.242;8.670;2023-03-23T13:58:46;1.00;;;0.50;;
47764;SDS011;33529;49.242;8.670;2023-03-23T14:01:16;0.95;;;0.40;;
47764;SDS011;33529;49.242;8.670;2023-03-23T14:03:48;0.98;;;0.40;;
47764;SDS011;33529;49.242;8.670;2023-03-23T14:06:24;1.15;;;0.50;;
47764;SDS011;33529;49.242;8.670;2023-03-23T14:09:23;1.35;;;0.57;;
47764;SDS011;33529;49.242;8.670;2023-03-23T14:11:55;0.45;;;0.40;;
47764;SDS011;33529;49.242;8.670;2023-03-23T14:14:46;1.27;;;0.60;;
47764;SDS011;33529;49.242;8.670;2023-03-23T14:17:28;1.42;;;0.60;;
47764;SDS011;33529;49.242;8.670;2023-03-23T14:19:55;1.08;;;0.50;;
47764;SDS011;33529;49.242;8.670;2023-03-23T14:22:34;1.92;;;0.68;;
47764;SDS011;33529;49.242;8.670;2023-03-23T14:25:08;0.90;;;0.40;;
47764;SDS011;33529;49.242;8.670;2023-03-23T14:27:35;0.50;;;0.43;;
47764;SDS011;33529;49.242;8.670;2023-03-23T14:30:03;0.77;;;0.47;;
47764;SDS011;33529;49.242;8.670;2023-03-23T14:32:40;0.80;;;0.35;;
47764;SDS011;33529;49.242;8.670;2023-03-23T14:35:40;0.77;;;0.30;;
47764;SDS011;33529;49.242;8.670;2023-03-23T14:38:00;1.13;;;0.43;;
47764;SDS011;33529;49.242;8.670;2023-03-23T14:40:27;1.15;;;0.50;;
47764;SDS011;33529;49.242;8.670;2023-03-23T14:42:55;0.68;;;0.45;;
47764;SDS011;33529;49.242;8.670;2023-03-23T14:45:22;1.63;;;0.80;;
47764;SDS011;33529;49.242;8.670;2023-03-23T14:50:29;0.68;;;0.50;;
47764;SDS011;33529;49.242;8.670;2023-03-23T14:55:59;1.20;;;0.60;;
47764;SDS011;33529;49.242;8.670;2023-03-23T14:58:34;0.52;;;0.38;;
47764;SDS011;33529;49.242;8.670;2023-03-23T15:01:05;2.78;;;0.80;;
47764;SDS011;33529;49.242;8.670;2023-03-23T15:03:37;2.00;;;0.90;;
47764;SDS011;33529;49.242;8.670;2023-03-23T15:06:23;1.35;;;0.60;;
47764;SDS011;33529;49.242;8.670;2023-03-23T15:08:53;1.20;;;0.47;;
47764;SDS011;33529;49.242;8.670;2023-03-23T15:11:31;1.13;;;0.60;;
47764;SDS011;33529;49.242;8.670;2023-03-23T15:14:18;1.02;;;0.50;;
47764;SDS011;33529;49.242;8.670;2023-03-23T15:16:48;1.88;;;0.75;;
47764;SDS011;33529;49.242;8.670;2023-03-23T15:19:25;2.03;;;0.65;;
47764;SDS011;33529;49.242;8.670;2023-03-23T15:22:06;0.90;;;0.47;;
47764;SDS011;33529;49.242;8.670;2023-03-23T15:24:40;1.80;;;0.75;;
47764;SDS011;33529;49.242;8.670;2023-03-23T15:29:58;4.00;;;1.67;;
47764;SDS011;33529;49.242;8.670;2023-03-23T15:32:40;1.42;;;0.82;;
47764;SDS011;33529;49.242;8.670;2023-03-23T15:35:12;1.80;;;0.80;;
47764;SDS011;33529;49.242;8.670;2023-03-23T15:37:47;1.73;;;0.93;;
47764;SDS011;33529;49.242;8.670;2023-03-23T15:40:16;1.75;;;0.60;;
47764;SDS011;33529;49.242;8.670;2023-03-23T15:42:44;2.00;;;0.60;;
47764;SDS011;33529;49.242;8.670;2023-03-23T15:52:41;1.48;;;0.90;;
47764;SDS011;33529;49.242;8.670;2023-03-23T15:55:22;3.10;;;1.10;;
47764;SDS011;33529;49.242;8.670;2023-03-23T15:57:48;2.50;;;1.50;;
47764;SDS011;33529;49.242;8.670;2023-03-23T16:00:19;2.92;;;1.45;;
47764;SDS011;33529;49.242;8.670;2023-03-23T16:02:49;2.47;;;0.90;;
47764;SDS011;33529;49.242;8.670;2023-03-23T16:05:26;2.58;;;1.13;;
47764;SDS011;33529;49.242;8.670;2023-03-23T16:07:53;3.03;;;1.33;;
47764;SDS011;33529;49.242;8.670;2023-03-23T16:10:21;2.47;;;0.80;;
47764;SDS011;33529;49.242;8.670;2023-03-23T16:12:49;1.75;;;0.80;;
47764;SDS011;33529;49.242;8.670;2023-03-23T16:15:16;2.78;;;0.77;;
47764;SDS011;33529;49.242;8.670;2023-03-23T16:17:44;2.75;;;1.15;;
47764;SDS011;33529;49.242;8.670;2023-03-23T16:22:42;2.45;;;0.95;;
47764;SDS011;33529;49.242;8.670;2023-03-23T16:25:09;2.45;;;0.90;;
47764;SDS011;33529;49.242;8.670;2023-03-23T16:27:37;2.13;;;0.93;;
47764;SDS011;33529;49.242;8.670;2023-03-23T16:30:12;2.55;;;0.80;;
47764;SDS011;33529;49.242;8.670;2023-03-23T16:32:44;1.35;;;0.98;;
47764;SDS011;33529;49.242;8.670;2023-03-23T16:35:12;1.75;;;1.02;;
47764;SDS011;33529;49.242;8.670;2023-03-23T16:37:44;1.42;;;0.90;;
47764;SDS011;33529;49.242;8.670;2023-03-23T16:40:12;1.80;;;0.98;;
47764;SDS011;33529;49.242;8.670;2023-03-23T16:42:40;1.90;;;0.95;;
47764;SDS011;33529;49.242;8.670;2023-03-23T16:45:08;2.58;;;1.27;;
47764;SDS011;33529;49.242;8.670;2023-03-23T16:47:37;2.20;;;1.30;;
47764;SDS011;33529;49.242;8.670;2023-03-23T16:50:05;2.97;;;0.90;;
47764;SDS011;33529;49.242;8.670;2023-03-23T16:52:33;2.47;;;1.20;;
47764;SDS011;33529;49.242;8.670;2023-03-23T16:55:11;1.83;;;1.10;;
47764;SDS011;33529;49.242;8.670;2023-03-23T16:57:39;2.55;;;1.15;;
47764;SDS011;33529;49.242;8.670;2023-03-23T17:00:10;2.40;;;1.40;;
47764;SDS011;33529;49.242;8.670;2023-03-23T17:02:40;2.13;;;0.95;;
47764;SDS011;33529;49.242;8.670;2023-03-23T17:05:09;4.60;;;2.40;;
47764;SDS011;33529;49.242;8.670;2023-03-23T17:07:37;3.22;;;2.10;;
47764;SDS011;33529;49.242;8.670;2023-03-23T17:10:05;2.00;;;1.40;;
47764;SDS011;33529;49.242;8.670;2023-03-23T17:12:33;3.28;;;1.70;;
47764;SDS011;33529;49.242;8.670;2023-03-23T17:15:00;2.30;;;1.20;;
47764;SDS011;33529;49.242;8.670;2023-03-23T17:17:28;3.53;;;1.77;;
47764;SDS011;33529;49.242;8.670;2023-03-23T17:19:55;4.03;;;1.67;;
47764;SDS011;33529;49.242;8.670;2023-03-23T17:22:23;3.47;;;1.73;;
47764;SDS011;33529;49.242;8.670;2023-03-23T17:24:50;2.08;;;1.25;;
47764;SDS011;33529;49.242;8.670;2023-03-23T17:27:18;2.42;;;1.58;;
47764;SDS011;33529;49.242;8.670;2023-03-23T17:29:46;2.67;;;1.58;;